sensor_id;sensor_type;location;lat;lon;timestamp;pressure;altitude;pressure_sealevel;temperature
53667;BMP280;39568;51.026;5.468;2022-11-20T00:00:41;100366.41;;;2.66
53667;BMP280;39568;51.026;5.468;2022-11-20T00:03:16;100362.91;;;2.69
53667;BMP280;39568;51.026;5.468;2022-11-20T00:05:44;100373.41;;;2.69
53667;BMP280;39568;51.026;5.468;2022-11-20T00:08:11;100366.56;;;2.72
53667;BMP280;39568;51.026;5.468;2022-11-20T00:10:38;100367.16;;;2.76
53667;BMP280;39568;51.026;5.468;2022-11-20T00:13:06;100368.78;;;2.82
53667;BMP280;39568;51.026;5.468;2022-11-20T00:15:34;100364.97;;;2.74
53667;BMP280;39568;51.026;5.468;2022-11-20T00:18:00;100353.44;;;2.72
53667;BMP280;39568;51.026;5.468;2022-11-20T00:20:27;100362.63;;;2.76
53667;BMP280;39568;51.026;5.468;2022-11-20T00:22:54;100354.03;;;2.76
53667;BMP280;39568;51.026;5.468;2022-11-20T00:25:21;100351.41;;;2.76
53667;BMP280;39568;51.026;5.468;2022-11-20T00:27:48;100359.72;;;2.74
53667;BMP280;39568;51.026;5.468;2022-11-20T00:30:16;100352.88;;;2.77
53667;BMP280;39568;51.026;5.468;2022-11-20T00:32:51;100345.84;;;2.74
53667;BMP280;39568;51.026;5.468;2022-11-20T00:35:18;100344.25;;;2.76
53667;BMP280;39568;51.026;5.468;2022-11-20T00:37:44;100350.09;;;2.80
53667;BMP280;39568;51.026;5.468;2022-11-20T00:40:12;100353.28;;;2.75
53667;BMP280;39568;51.026;5.468;2022-11-20T00:42:41;100351.56;;;2.81
53667;BMP280;39568;51.026;5.468;2022-11-20T00:45:09;100346.00;;;2.79
53667;BMP280;39568;51.026;5.468;2022-11-20T00:47:39;100337.53;;;2.75
53667;BMP280;39568;51.026;5.468;2022-11-20T00:50:08;100332.28;;;2.75
53667;BMP280;39568;51.026;5.468;2022-11-20T00:52:46;100337.81;;;2.68
53667;BMP280;39568;51.026;5.468;2022-11-20T00:55:13;100339.97;;;2.61
53667;BMP280;39568;51.026;5.468;2022-11-20T00:57:40;100333.41;;;2.56
53667;BMP280;39568;51.026;5.468;2022-11-20T01:00:08;100335.38;;;2.43
53667;BMP280;39568;51.026;5.468;2022-11-20T01:02:34;100335.50;;;2.39
53667;BMP280;39568;51.026;5.468;2022-11-20T01:05:03;100343.50;;;2.36
53667;BMP280;39568;51.026;5.468;2022-11-20T01:07:30;100339.41;;;2.26
53667;BMP280;39568;51.026;5.468;2022-11-20T01:09:56;100350.19;;;2.28
53667;BMP280;39568;51.026;5.468;2022-11-20T01:12:23;100357.63;;;2.29
53667;BMP280;39568;51.026;5.468;2022-11-20T01:14:50;100358.94;;;2.25
53667;BMP280;39568;51.026;5.468;2022-11-20T01:17:27;100365.38;;;2.33
53667;BMP280;39568;51.026;5.468;2022-11-20T01:19:53;100368.44;;;2.62
53667;BMP280;39568;51.026;5.468;2022-11-20T01:22:21;100375.41;;;2.56
53667;BMP280;39568;51.026;5.468;2022-11-20T01:24:48;100371.09;;;2.40
53667;BMP280;39568;51.026;5.468;2022-11-20T01:27:15;100365.50;;;2.29
53667;BMP280;39568;51.026;5.468;2022-11-20T01:29:41;100369.13;;;2.23
53667;BMP280;39568;51.026;5.468;2022-11-20T01:32:08;100366.94;;;2.21
53667;BMP280;39568;51.026;5.468;2022-11-20T01:34:35;100368.09;;;2.20
53667;BMP280;39568;51.026;5.468;2022-11-20T01:37:05;100375.41;;;2.25
53667;BMP280;39568;51.026;5.468;2022-11-20T01:39:33;100378.47;;;2.24
53667;BMP280;39568;51.026;5.468;2022-11-20T01:42:00;100381.13;;;2.33
53667;BMP280;39568;51.026;5.468;2022-11-20T01:44:56;100383.00;;;2.32
53667;BMP280;39568;51.026;5.468;2022-11-20T01:47:28;100382.59;;;2.34
53667;BMP280;39568;51.026;5.468;2022-11-20T01:50:00;100381.84;;;2.33
53667;BMP280;39568;51.026;5.468;2022-11-20T01:52:33;100391.63;;;2.33
53667;BMP280;39568;51.026;5.468;2022-11-20T01:55:04;100371.44;;;2.21
53667;BMP280;39568;51.026;5.468;2022-11-20T01:57:33;100375.00;;;2.27
53667;BMP280;39568;51.026;5.468;2022-11-20T02:00:04;100378.63;;;2.29
53667;BMP280;39568;51.026;5.468;2022-11-20T02:02:33;100372.06;;;2.25
53667;BMP280;39568;51.026;5.468;2022-11-20T02:05:12;100372.78;;;2.25
53667;BMP280;39568;51.026;5.468;2022-11-20T02:07:41;100366.69;;;2.28
53667;BMP280;39568;51.026;5.468;2022-11-20T02:10:09;100370.31;;;2.31
53667;BMP280;39568;51.026;5.468;2022-11-20T02:12:36;100365.94;;;2.28
53667;BMP280;39568;51.026;5.468;2022-11-20T02:15:20;100353.06;;;2.21
53667;BMP280;39568;51.026;5.468;2022-11-20T02:17:48;100358.94;;;2.25
53667;BMP280;39568;51.026;5.468;2022-11-20T02:20:15;100359.50;;;2.29
53667;BMP280;39568;51.026;5.468;2022-11-20T02:22:46;100345.38;;;2.26
53667;BMP280;39568;51.026;5.468;2022-11-20T02:25:16;100348.94;;;2.11
53667;BMP280;39568;51.026;5.468;2022-11-20T02:27:43;100342.22;;;2.10
53667;BMP280;39568;51.026;5.468;2022-11-20T02:30:11;100346.56;;;2.04
53667;BMP280;39568;51.026;5.468;2022-11-20T02:32:38;100345.75;;;2.16
53667;BMP280;39568;51.026;5.468;2022-11-20T02:35:35;100343.75;;;2.29
53667;BMP280;39568;51.026;5.468;2022-11-20T02:38:02;100349.91;;;2.26
53667;BMP280;39568;51.026;5.468;2022-11-20T02:40:32;100342.56;;;2.21
53667;BMP280;39568;51.026;5.468;2022-11-20T02:42:58;100344.91;;;2.19
53667;BMP280;39568;51.026;5.468;2022-11-20T02:45:25;100351.31;;;2.18
53667;BMP280;39568;51.026;5.468;2022-11-20T02:47:55;100349.53;;;2.15
53667;BMP280;39568;51.026;5.468;2022-11-20T02:50:36;100347.53;;;2.19
53667;BMP280;39568;51.026;5.468;2022-11-20T02:53:04;100354.34;;;2.16
53667;BMP280;39568;51.026;5.468;2022-11-20T02:55:31;100353.19;;;2.17
53667;BMP280;39568;51.026;5.468;2022-11-20T02:57:58;100357.72;;;2.17
53667;BMP280;39568;51.026;5.468;2022-11-20T03:00:24;100351.72;;;2.16
53667;BMP280;39568;51.026;5.468;2022-11-20T03:02:51;100360.03;;;2.15
53667;BMP280;39568;51.026;5.468;2022-11-20T03:05:18;100352.66;;;2.01
53667;BMP280;39568;51.026;5.468;2022-11-20T03:07:44;100354.47;;;2.13
53667;BMP280;39568;51.026;5.468;2022-11-20T03:10:18;100349.28;;;2.22
53667;BMP280;39568;51.026;5.468;2022-11-20T03:12:45;100356.63;;;2.27
53667;BMP280;39568;51.026;5.468;2022-11-20T03:15:12;100337.50;;;2.26
53667;BMP280;39568;51.026;5.468;2022-11-20T03:17:38;100339.41;;;2.26
53667;BMP280;39568;51.026;5.468;2022-11-20T03:20:14;100343.13;;;2.16
53667;BMP280;39568;51.026;5.468;2022-11-20T03:22:41;100341.97;;;2.17
53667;BMP280;39568;51.026;5.468;2022-11-20T03:25:08;100335.03;;;2.23
53667;BMP280;39568;51.026;5.468;2022-11-20T03:27:36;100337.69;;;2.41
53667;BMP280;39568;51.026;5.468;2022-11-20T03:30:04;100332.03;;;2.42
53667;BMP280;39568;51.026;5.468;2022-11-20T03:32:31;100318.78;;;2.46
53667;BMP280;39568;51.026;5.468;2022-11-20T03:35:06;100312.31;;;2.38
53667;BMP280;39568;51.026;5.468;2022-11-20T03:37:33;100317.72;;;2.43
53667;BMP280;39568;51.026;5.468;2022-11-20T03:39:59;100320.13;;;2.29
53667;BMP280;39568;51.026;5.468;2022-11-20T03:42:32;100307.63;;;2.33
53667;BMP280;39568;51.026;5.468;2022-11-20T03:45:13;100314.06;;;2.41
53667;BMP280;39568;51.026;5.468;2022-11-20T03:47:40;100315.53;;;2.42
53667;BMP280;39568;51.026;5.468;2022-11-20T03:50:14;100311.56;;;2.28
53667;BMP280;39568;51.026;5.468;2022-11-20T03:52:53;100307.47;;;2.36
53667;BMP280;39568;51.026;5.468;2022-11-20T03:55:19;100309.94;;;2.31
53667;BMP280;39568;51.026;5.468;2022-11-20T03:57:46;100310.66;;;2.31
53667;BMP280;39568;51.026;5.468;2022-11-20T04:00:16;100311.16;;;2.39
53667;BMP280;39568;51.026;5.468;2022-11-20T04:02:44;100303.84;;;2.34
53667;BMP280;39568;51.026;5.468;2022-11-20T04:05:11;100306.34;;;2.37
53667;BMP280;39568;51.026;5.468;2022-11-20T04:07:37;100301.97;;;2.43
53667;BMP280;39568;51.026;5.468;2022-11-20T04:10:14;100293.59;;;2.58
53667;BMP280;39568;51.026;5.468;2022-11-20T04:12:40;100300.84;;;2.63
53667;BMP280;39568;51.026;5.468;2022-11-20T04:15:08;100304.38;;;2.69
53667;BMP280;39568;51.026;5.468;2022-11-20T04:17:36;100308.63;;;2.75
53667;BMP280;39568;51.026;5.468;2022-11-20T04:20:04;100311.25;;;2.75
53667;BMP280;39568;51.026;5.468;2022-11-20T04:22:30;100309.50;;;2.72
53667;BMP280;39568;51.026;5.468;2022-11-20T04:24:57;100306.28;;;2.68
53667;BMP280;39568;51.026;5.468;2022-11-20T04:27:24;100310.78;;;2.68
53667;BMP280;39568;51.026;5.468;2022-11-20T04:29:52;100306.25;;;2.59
53667;BMP280;39568;51.026;5.468;2022-11-20T04:32:20;100322.22;;;2.74
53667;BMP280;39568;51.026;5.468;2022-11-20T04:34:51;100313.88;;;2.66
53667;BMP280;39568;51.026;5.468;2022-11-20T04:37:23;100316.78;;;2.68
53667;BMP280;39568;51.026;5.468;2022-11-20T04:39:50;100313.88;;;2.66
53667;BMP280;39568;51.026;5.468;2022-11-20T04:42:16;100314.72;;;2.63
53667;BMP280;39568;51.026;5.468;2022-11-20T04:44:55;100318.38;;;2.57
53667;BMP280;39568;51.026;5.468;2022-11-20T04:47:22;100306.84;;;2.54
53667;BMP280;39568;51.026;5.468;2022-11-20T04:49:51;100314.88;;;2.51
53667;BMP280;39568;51.026;5.468;2022-11-20T04:52:17;100312.59;;;2.40
53667;BMP280;39568;51.026;5.468;2022-11-20T04:54:50;100310.84;;;2.37
53667;BMP280;39568;51.026;5.468;2022-11-20T04:57:18;100307.94;;;2.35
53667;BMP280;39568;51.026;5.468;2022-11-20T04:59:45;100303.84;;;2.34
53667;BMP280;39568;51.026;5.468;2022-11-20T05:02:11;100301.63;;;2.32
53667;BMP280;39568;51.026;5.468;2022-11-20T05:04:38;100295.59;;;2.14
53667;BMP280;39568;51.026;5.468;2022-11-20T05:07:10;100296.38;;;2.32
53667;BMP280;39568;51.026;5.468;2022-11-20T05:09:36;100288.38;;;2.36
53667;BMP280;39568;51.026;5.468;2022-11-20T05:12:04;100286.94;;;2.35
53667;BMP280;39568;51.026;5.468;2022-11-20T05:14:30;100289.56;;;2.35
53667;BMP280;39568;51.026;5.468;2022-11-20T05:16:57;100286.91;;;2.26
53667;BMP280;39568;51.026;5.468;2022-11-20T05:19:24;100282.66;;;2.19
53667;BMP280;39568;51.026;5.468;2022-11-20T05:21:50;100289.56;;;2.35
53667;BMP280;39568;51.026;5.468;2022-11-20T05:24:18;100283.13;;;2.36
53667;BMP280;39568;51.026;5.468;2022-11-20T05:26:45;100285.47;;;2.34
53667;BMP280;39568;51.026;5.468;2022-11-20T05:29:12;100284.41;;;2.22
53667;BMP280;39568;51.026;5.468;2022-11-20T05:31:40;100283.13;;;2.27
53667;BMP280;39568;51.026;5.468;2022-11-20T05:34:07;100285.44;;;2.25
53667;BMP280;39568;51.026;5.468;2022-11-20T05:36:33;100280.75;;;2.29
53667;BMP280;39568;51.026;5.468;2022-11-20T05:39:00;100271.72;;;2.30
53667;BMP280;39568;51.026;5.468;2022-11-20T05:41:28;100277.56;;;2.25
53667;BMP280;39568;51.026;5.468;2022-11-20T05:43:55;100270.44;;;2.25
53667;BMP280;39568;51.026;5.468;2022-11-20T05:46:22;100269.41;;;2.23
53667;BMP280;39568;51.026;5.468;2022-11-20T05:48:49;100268.94;;;2.24
53667;BMP280;39568;51.026;5.468;2022-11-20T05:51:17;100277.97;;;2.14
53667;BMP280;39568;51.026;5.468;2022-11-20T05:53:44;100282.69;;;2.28
53667;BMP280;39568;51.026;5.468;2022-11-20T05:56:13;100276.44;;;2.35
53667;BMP280;39568;51.026;5.468;2022-11-20T05:58:42;100284.31;;;2.35
53667;BMP280;39568;51.026;5.468;2022-11-20T06:01:10;100289.94;;;2.24
53667;BMP280;39568;51.026;5.468;2022-11-20T06:03:38;100289.25;;;2.33
53667;BMP280;39568;51.026;5.468;2022-11-20T06:06:05;100297.72;;;2.37
53667;BMP280;39568;51.026;5.468;2022-11-20T06:08:32;100293.63;;;2.36
53667;BMP280;39568;51.026;5.468;2022-11-20T06:11:03;100293.22;;;2.37
53667;BMP280;39568;51.026;5.468;2022-11-20T06:13:30;100298.03;;;2.39
53667;BMP280;39568;51.026;5.468;2022-11-20T06:15:58;100294.84;;;2.44
53667;BMP280;39568;51.026;5.468;2022-11-20T06:18:26;100301.22;;;2.43
53667;BMP280;39568;51.026;5.468;2022-11-20T06:20:59;100301.22;;;2.43
53667;BMP280;39568;51.026;5.468;2022-11-20T06:23:28;100300.59;;;2.30
53667;BMP280;39568;51.026;5.468;2022-11-20T06:25:54;100292.47;;;2.37
53667;BMP280;39568;51.026;5.468;2022-11-20T06:28:21;100293.66;;;2.45
53667;BMP280;39568;51.026;5.468;2022-11-20T06:30:48;100292.00;;;2.29
53667;BMP280;39568;51.026;5.468;2022-11-20T06:33:16;100289.88;;;2.46
53667;BMP280;39568;51.026;5.468;2022-11-20T06:35:42;100290.91;;;2.49
53667;BMP280;39568;51.026;5.468;2022-11-20T06:38:09;100289.63;;;2.53
53667;BMP280;39568;51.026;5.468;2022-11-20T06:40:36;100286.69;;;2.51
53667;BMP280;39568;51.026;5.468;2022-11-20T06:43:05;100291.91;;;2.42
53667;BMP280;39568;51.026;5.468;2022-11-20T06:45:32;100289.97;;;2.33
53667;BMP280;39568;51.026;5.468;2022-11-20T06:47:59;100287.09;;;2.40
53667;BMP280;39568;51.026;5.468;2022-11-20T06:50:27;100283.81;;;2.58
53667;BMP280;39568;51.026;5.468;2022-11-20T06:52:53;100288.00;;;2.47
53667;BMP280;39568;51.026;5.468;2022-11-20T06:55:20;100292.81;;;2.48
53667;BMP280;39568;51.026;5.468;2022-11-20T06:57:46;100289.63;;;2.53
53667;BMP280;39568;51.026;5.468;2022-11-20T07:00:14;100281.44;;;2.51
53667;BMP280;39568;51.026;5.468;2022-11-20T07:02:41;100284.84;;;2.70
53667;BMP280;39568;51.026;5.468;2022-11-20T07:05:21;100280.63;;;2.72
53667;BMP280;39568;51.026;5.468;2022-11-20T07:07:49;100276.66;;;2.68
53667;BMP280;39568;51.026;5.468;2022-11-20T07:10:16;100265.13;;;2.56
53667;BMP280;39568;51.026;5.468;2022-11-20T07:12:49;100271.38;;;2.50
53667;BMP280;39568;51.026;5.468;2022-11-20T07:15:15;100275.34;;;2.54
53667;BMP280;39568;51.026;5.468;2022-11-20T07:17:42;100283.63;;;2.53
53667;BMP280;39568;51.026;5.468;2022-11-20T07:20:10;100274.97;;;2.43
53667;BMP280;39568;51.026;5.468;2022-11-20T07:22:36;100290.38;;;2.72
53667;BMP280;39568;51.026;5.468;2022-11-20T07:25:05;100289.50;;;2.57
53667;BMP280;39568;51.026;5.468;2022-11-20T07:27:32;100284.38;;;2.53
53667;BMP280;39568;51.026;5.468;2022-11-20T07:29:59;100288.47;;;2.54
53667;BMP280;39568;51.026;5.468;2022-11-20T07:32:26;100283.78;;;2.49
53667;BMP280;39568;51.026;5.468;2022-11-20T07:34:52;100281.00;;;2.53
53667;BMP280;39568;51.026;5.468;2022-11-20T07:37:19;100279.28;;;2.68
53667;BMP280;39568;51.026;5.468;2022-11-20T07:39:46;100276.22;;;2.69
53667;BMP280;39568;51.026;5.468;2022-11-20T07:42:14;100276.53;;;2.80
53667;BMP280;39568;51.026;5.468;2022-11-20T07:44:40;100277.59;;;2.92
53667;BMP280;39568;51.026;5.468;2022-11-20T07:47:07;100269.53;;;2.86
53667;BMP280;39568;51.026;5.468;2022-11-20T07:49:33;100269.53;;;2.95
53667;BMP280;39568;51.026;5.468;2022-11-20T07:52:00;100274.38;;;3.06
53667;BMP280;39568;51.026;5.468;2022-11-20T07:54:27;100278.91;;;3.15
53667;BMP280;39568;51.026;5.468;2022-11-20T07:56:53;100275.84;;;3.16
53667;BMP280;39568;51.026;5.468;2022-11-20T07:59:21;100272.47;;;3.25
53667;BMP280;39568;51.026;5.468;2022-11-20T08:01:48;100275.41;;;3.27
53667;BMP280;39568;51.026;5.468;2022-11-20T08:04:15;100281.09;;;3.07
53667;BMP280;39568;51.026;5.468;2022-11-20T08:06:41;100292.06;;;3.06
53667;BMP280;39568;51.026;5.468;2022-11-20T08:09:08;100291.31;;;3.23
53667;BMP280;39568;51.026;5.468;2022-11-20T08:11:35;100292.63;;;3.10
53667;BMP280;39568;51.026;5.468;2022-11-20T08:14:19;100283.00;;;3.07
53667;BMP280;39568;51.026;5.468;2022-11-20T08:16:48;100284.63;;;3.40
53667;BMP280;39568;51.026;5.468;2022-11-20T08:19:16;100280.66;;;3.18
53667;BMP280;39568;51.026;5.468;2022-11-20T08:21:43;100292.78;;;3.24
53667;BMP280;39568;51.026;5.468;2022-11-20T08:24:11;100282.13;;;3.28
53667;BMP280;39568;51.026;5.468;2022-11-20T08:26:38;100281.53;;;3.33
53667;BMP280;39568;51.026;5.468;2022-11-20T08:29:05;100280.50;;;3.30
53667;BMP280;39568;51.026;5.468;2022-11-20T08:31:32;100279.50;;;3.28
53667;BMP280;39568;51.026;5.468;2022-11-20T08:34:00;100274.09;;;3.40
53667;BMP280;39568;51.026;5.468;2022-11-20T08:36:27;100265.75;;;3.42
53667;BMP280;39568;51.026;5.468;2022-11-20T08:38:55;100264.59;;;3.43
53667;BMP280;39568;51.026;5.468;2022-11-20T08:41:22;100266.94;;;3.32
53667;BMP280;39568;51.026;5.468;2022-11-20T08:43:54;100263.72;;;3.28
53667;BMP280;39568;51.026;5.468;2022-11-20T08:46:22;100260.38;;;3.36
53667;BMP280;39568;51.026;5.468;2022-11-20T08:48:49;100256.81;;;3.58
53667;BMP280;39568;51.026;5.468;2022-11-20T08:51:17;100258.06;;;3.80
53667;BMP280;39568;51.026;5.468;2022-11-20T08:53:44;100260.91;;;4.00
53667;BMP280;39568;51.026;5.468;2022-11-20T08:56:11;100254.84;;;3.76
53667;BMP280;39568;51.026;5.468;2022-11-20T08:58:38;100267.41;;;3.81
53667;BMP280;39568;51.026;5.468;2022-11-20T09:01:05;100265.38;;;3.85
53667;BMP280;39568;51.026;5.468;2022-11-20T09:03:31;100270.25;;;4.11
53667;BMP280;39568;51.026;5.468;2022-11-20T09:05:58;100265.44;;;4.00
53667;BMP280;39568;51.026;5.468;2022-11-20T09:08:28;100267.06;;;3.97
53667;BMP280;39568;51.026;5.468;2022-11-20T09:10:56;100254.91;;;4.00
53667;BMP280;39568;51.026;5.468;2022-11-20T09:13:23;100247.22;;;4.20
53667;BMP280;39568;51.026;5.468;2022-11-20T09:15:53;100247.38;;;4.17
53667;BMP280;39568;51.026;5.468;2022-11-20T09:18:20;100236.84;;;4.17
53667;BMP280;39568;51.026;5.468;2022-11-20T09:20:47;100243.41;;;4.30
53667;BMP280;39568;51.026;5.468;2022-11-20T09:23:14;100236.28;;;4.45
53667;BMP280;39568;51.026;5.468;2022-11-20T09:25:42;100231.94;;;4.57
53667;BMP280;39568;51.026;5.468;2022-11-20T09:28:09;100230.03;;;4.81
53667;BMP280;39568;51.026;5.468;2022-11-20T09:30:35;100218.81;;;4.72
53667;BMP280;39568;51.026;5.468;2022-11-20T09:33:04;100227.06;;;4.65
53667;BMP280;39568;51.026;5.468;2022-11-20T09:35:30;100220.81;;;4.62
53667;BMP280;39568;51.026;5.468;2022-11-20T09:37:57;100226.31;;;4.88
53667;BMP280;39568;51.026;5.468;2022-11-20T09:40:25;100222.44;;;5.13
53667;BMP280;39568;51.026;5.468;2022-11-20T09:42:57;100230.44;;;5.33
53667;BMP280;39568;51.026;5.468;2022-11-20T09:45:34;100227.69;;;5.13
53667;BMP280;39568;51.026;5.468;2022-11-20T09:48:20;100219.31;;;4.85
53667;BMP280;39568;51.026;5.468;2022-11-20T09:50:55;100215.50;;;5.00
53667;BMP280;39568;51.026;5.468;2022-11-20T09:53:30;100219.78;;;5.42
53667;BMP280;39568;51.026;5.468;2022-11-20T09:56:01;100208.78;;;5.43
53667;BMP280;39568;51.026;5.468;2022-11-20T09:58:33;100205.19;;;5.61
53667;BMP280;39568;51.026;5.468;2022-11-20T10:01:08;100197.28;;;5.96
53667;BMP280;39568;51.026;5.468;2022-11-20T10:03:41;100208.56;;;5.96
53667;BMP280;39568;51.026;5.468;2022-11-20T10:06:14;100194.19;;;5.97
53667;BMP280;39568;51.026;5.468;2022-11-20T10:08:44;100198.31;;;5.98
53667;BMP280;39568;51.026;5.468;2022-11-20T10:11:17;100196.19;;;5.88
53667;BMP280;39568;51.026;5.468;2022-11-20T10:13:52;100187.75;;;5.84
53667;BMP280;39568;51.026;5.468;2022-11-20T10:16:27;100173.16;;;5.88
53667;BMP280;39568;51.026;5.468;2022-11-20T10:19:07;100166.97;;;5.71
53667;BMP280;39568;51.026;5.468;2022-11-20T10:21:52;100163.41;;;5.74
53667;BMP280;39568;51.026;5.468;2022-11-20T10:24:42;100157.84;;;5.72
53667;BMP280;39568;51.026;5.468;2022-11-20T10:27:36;100164.28;;;5.51
53667;BMP280;39568;51.026;5.468;2022-11-20T10:30:11;100157.56;;;5.50
53667;BMP280;39568;51.026;5.468;2022-11-20T10:32:40;100154.84;;;5.44
53667;BMP280;39568;51.026;5.468;2022-11-20T10:35:16;100152.91;;;5.45
53667;BMP280;39568;51.026;5.468;2022-11-20T10:37:47;100153.78;;;5.56
53667;BMP280;39568;51.026;5.468;2022-11-20T10:40:20;100148.16;;;5.49
53667;BMP280;39568;51.026;5.468;2022-11-20T10:42:51;100135.94;;;5.66
53667;BMP280;39568;51.026;5.468;2022-11-20T10:45:35;100139.00;;;5.79
53667;BMP280;39568;51.026;5.468;2022-11-20T10:48:10;100133.63;;;5.74
53667;BMP280;39568;51.026;5.468;2022-11-20T10:50:57;100131.59;;;5.63
53667;BMP280;39568;51.026;5.468;2022-11-20T10:53:38;100119.38;;;5.66
53667;BMP280;39568;51.026;5.468;2022-11-20T10:56:19;100126.19;;;5.52
53667;BMP280;39568;51.026;5.468;2022-11-20T10:58:54;100124.56;;;5.40
53667;BMP280;39568;51.026;5.468;2022-11-20T11:01:28;100114.03;;;5.60
53667;BMP280;39568;51.026;5.468;2022-11-20T11:03:55;100099.53;;;5.70
53667;BMP280;39568;51.026;5.468;2022-11-20T11:06:29;100098.75;;;5.84
53667;BMP280;39568;51.026;5.468;2022-11-20T11:09:01;100094.44;;;6.07
53667;BMP280;39568;51.026;5.468;2022-11-20T11:11:32;100085.13;;;6.11
53667;BMP280;39568;51.026;5.468;2022-11-20T11:14:06;100074.16;;;6.19
53667;BMP280;39568;51.026;5.468;2022-11-20T11:16:35;100077.13;;;6.26
53667;BMP280;39568;51.026;5.468;2022-11-20T11:19:05;100071.84;;;6.26
53667;BMP280;39568;51.026;5.468;2022-11-20T11:21:32;100080.53;;;6.32
53667;BMP280;39568;51.026;5.468;2022-11-20T11:24:01;100073.75;;;6.26
53667;BMP280;39568;51.026;5.468;2022-11-20T11:26:28;100071.13;;;6.26
53667;BMP280;39568;51.026;5.468;2022-11-20T11:28:56;100060.72;;;6.48
53667;BMP280;39568;51.026;5.468;2022-11-20T11:31:25;100054.56;;;6.56
53667;BMP280;39568;51.026;5.468;2022-11-20T11:34:03;100062.47;;;6.56
53667;BMP280;39568;51.026;5.468;2022-11-20T11:36:32;100064.03;;;6.43
53667;BMP280;39568;51.026;5.468;2022-11-20T11:39:00;100055.88;;;6.41
53667;BMP280;39568;51.026;5.468;2022-11-20T11:41:30;100050.31;;;6.64
53667;BMP280;39568;51.026;5.468;2022-11-20T11:44:02;100042.81;;;6.94
53667;BMP280;39568;51.026;5.468;2022-11-20T11:46:57;100044.94;;;6.90
53667;BMP280;39568;51.026;5.468;2022-11-20T11:49:26;100038.72;;;6.93
53667;BMP280;39568;51.026;5.468;2022-11-20T11:52:03;100038.59;;;7.13
53667;BMP280;39568;51.026;5.468;2022-11-20T11:54:36;100035.19;;;7.07
53667;BMP280;39568;51.026;5.468;2022-11-20T11:57:12;100027.00;;;7.05
53667;BMP280;39568;51.026;5.468;2022-11-20T11:59:57;100021.19;;;6.96
53667;BMP280;39568;51.026;5.468;2022-11-20T12:02:32;100025.81;;;7.06
53667;BMP280;39568;51.026;5.468;2022-11-20T12:05:10;100008.13;;;7.23
53667;BMP280;39568;51.026;5.468;2022-11-20T12:07:42;100008.19;;;7.46
53667;BMP280;39568;51.026;5.468;2022-11-20T12:10:17;99996.72;;;7.71
53667;BMP280;39568;51.026;5.468;2022-11-20T12:12:49;99992.91;;;7.83
53667;BMP280;39568;51.026;5.468;2022-11-20T12:15:25;99986.66;;;8.03
53667;BMP280;39568;51.026;5.468;2022-11-20T12:17:52;99983.97;;;8.30
53667;BMP280;39568;51.026;5.468;2022-11-20T12:20:22;99977.69;;;8.61
53667;BMP280;39568;51.026;5.468;2022-11-20T12:22:55;99980.75;;;8.82
53667;BMP280;39568;51.026;5.468;2022-11-20T12:25:22;99966.25;;;8.94
53667;BMP280;39568;51.026;5.468;2022-11-20T12:28:30;99960.38;;;9.23
53667;BMP280;39568;51.026;5.468;2022-11-20T12:31:21;99943.84;;;9.41
53667;BMP280;39568;51.026;5.468;2022-11-20T12:33:57;99939.72;;;8.94
53667;BMP280;39568;51.026;5.468;2022-11-20T12:36:35;99941.91;;;9.42
53667;BMP280;39568;51.026;5.468;2022-11-20T12:39:16;99932.09;;;9.31
53667;BMP280;39568;51.026;5.468;2022-11-20T12:42:02;99927.13;;;9.11
53667;BMP280;39568;51.026;5.468;2022-11-20T12:45:01;99924.56;;;9.35
53667;BMP280;39568;51.026;5.468;2022-11-20T12:47:49;99916.44;;;8.76
53667;BMP280;39568;51.026;5.468;2022-11-20T12:50:28;99912.28;;;8.86
53667;BMP280;39568;51.026;5.468;2022-11-20T12:53:01;99915.22;;;8.77
53667;BMP280;39568;51.026;5.468;2022-11-20T12:55:36;99906.28;;;8.74
53667;BMP280;39568;51.026;5.468;2022-11-20T12:58:12;99906.97;;;8.86
53667;BMP280;39568;51.026;5.468;2022-11-20T13:00:54;99897.19;;;8.64
53667;BMP280;39568;51.026;5.468;2022-11-20T13:03:41;99896.72;;;8.49
53667;BMP280;39568;51.026;5.468;2022-11-20T13:06:15;99887.25;;;8.70
53667;BMP280;39568;51.026;5.468;2022-11-20T13:08:48;99880.69;;;8.88
53667;BMP280;39568;51.026;5.468;2022-11-20T13:11:22;99875.91;;;8.70
53667;BMP280;39568;51.026;5.468;2022-11-20T13:14:04;99868.75;;;8.65
53667;BMP280;39568;51.026;5.468;2022-11-20T13:16:40;99866.09;;;8.59
53667;BMP280;39568;51.026;5.468;2022-11-20T13:19:11;99852.16;;;8.48
53667;BMP280;39568;51.026;5.468;2022-11-20T13:21:39;99845.09;;;8.67
53667;BMP280;39568;51.026;5.468;2022-11-20T13:24:25;99852.34;;;8.66
53667;BMP280;39568;51.026;5.468;2022-11-20T13:27:00;99857.47;;;8.48
53667;BMP280;39568;51.026;5.468;2022-11-20T13:29:27;99853.13;;;8.45
53667;BMP280;39568;51.026;5.468;2022-11-20T13:32:03;99851.41;;;8.53
53667;BMP280;39568;51.026;5.468;2022-11-20T13:34:31;99838.84;;;8.59
53667;BMP280;39568;51.026;5.468;2022-11-20T13:36:59;99847.59;;;8.43
53667;BMP280;39568;51.026;5.468;2022-11-20T13:39:31;99849.34;;;8.23
53667;BMP280;39568;51.026;5.468;2022-11-20T13:41:59;99846.03;;;8.06
53667;BMP280;39568;51.026;5.468;2022-11-20T13:44:30;99836.38;;;7.92
53667;BMP280;39568;51.026;5.468;2022-11-20T13:46:59;99853.00;;;7.76
53667;BMP280;39568;51.026;5.468;2022-11-20T13:49:31;99838.56;;;7.60
53667;BMP280;39568;51.026;5.468;2022-11-20T13:52:08;99836.88;;;7.52
53667;BMP280;39568;51.026;5.468;2022-11-20T13:55:00;99821.00;;;7.41
53667;BMP280;39568;51.026;5.468;2022-11-20T13:57:43;99816.88;;;7.28
53667;BMP280;39568;51.026;5.468;2022-11-20T14:00:15;99819.53;;;7.28
53667;BMP280;39568;51.026;5.468;2022-11-20T14:02:43;99815.22;;;7.14
53667;BMP280;39568;51.026;5.468;2022-11-20T14:05:18;99802.44;;;7.07
53667;BMP280;39568;51.026;5.468;2022-11-20T14:07:47;99790.63;;;6.97
53667;BMP280;39568;51.026;5.468;2022-11-20T14:10:24;99789.22;;;6.96
53667;BMP280;39568;51.026;5.468;2022-11-20T14:12:51;99778.84;;;6.93
53667;BMP280;39568;51.026;5.468;2022-11-20T14:15:26;99770.44;;;6.89
53667;BMP280;39568;51.026;5.468;2022-11-20T14:17:53;99777.41;;;6.86
53667;BMP280;39568;51.026;5.468;2022-11-20T14:20:21;99771.19;;;6.89
53667;BMP280;39568;51.026;5.468;2022-11-20T14:22:51;99754.56;;;6.83
53667;BMP280;39568;51.026;5.468;2022-11-20T14:25:19;99740.88;;;6.85
53667;BMP280;39568;51.026;5.468;2022-11-20T14:27:53;99733.91;;;6.87
53667;BMP280;39568;51.026;5.468;2022-11-20T14:30:21;99730.31;;;6.90